sensor_id;sensor_type;location;lat;lon;timestamp;P1;durP1;ratioP1;P2;durP2;ratioP2
18138;SDS011;9195;53.176;9.486;2022-10-17T00:01:00;7.93;;;7.63;;
18138;SDS011;9195;53.176;9.486;2022-10-17T00:03:26;8.23;;;7.93;;
18138;SDS011;9195;53.176;9.486;2022-10-17T00:05:52;8.27;;;7.97;;
18138;SDS011;9195;53.176;9.486;2022-10-17T00:08:18;8.10;;;7.80;;
18138;SDS011;9195;53.176;9.486;2022-10-17T00:10:44;8.37;;;8.07;;
18138;SDS011;9195;53.176;9.486;2022-10-17T00:13:10;8.70;;;8.40;;
18138;SDS011;9195;53.176;9.486;2022-10-17T00:15:36;8.20;;;7.90;;
18138;SDS011;9195;53.176;9.486;2022-10-17T00:18:02;8.50;;;8.20;;
18138;SDS011;9195;53.176;9.486;2022-10-17T00:20:28;8.10;;;7.80;;
18138;SDS011;9195;53.176;9.486;2022-10-17T00:22:54;8.30;;;8.00;;
18138;SDS011;9195;53.176;9.486;2022-10-17T00:25:20;8.47;;;8.17;;
18138;SDS011;9195;53.176;9.486;2022-10-17T00:27:46;8.10;;;7.80;;
18138;SDS011;9195;53.176;9.486;2022-10-17T00:30:12;8.97;;;8.57;;
18138;SDS011;9195;53.176;9.486;2022-10-17T00:32:39;8.30;;;8.00;;
18138;SDS011;9195;53.176;9.486;2022-10-17T00:35:05;8.30;;;8.00;;
18138;SDS011;9195;53.176;9.486;2022-10-17T00:37:32;8.30;;;8.00;;
18138;SDS011;9195;53.176;9.486;2022-10-17T00:39:57;8.17;;;7.87;;
18138;SDS011;9195;53.176;9.486;2022-10-17T00:42:23;8.23;;;7.93;;
18138;SDS011;9195;53.176;9.486;2022-10-17T00:47:21;8.20;;;7.90;;
18138;SDS011;9195;53.176;9.486;2022-10-17T00:49:47;8.27;;;7.97;;
18138;SDS011;9195;53.176;9.486;2022-10-17T00:52:14;7.80;;;7.50;;
18138;SDS011;9195;53.176;9.486;2022-10-17T00:54:45;7.97;;;7.67;;
18138;SDS011;9195;53.176;9.486;2022-10-17T00:57:14;8.03;;;7.73;;
18138;SDS011;9195;53.176;9.486;2022-10-17T00:59:41;8.33;;;8.03;;
18138;SDS011;9195;53.176;9.486;2022-10-17T01:02:12;8.50;;;8.20;;
18138;SDS011;9195;53.176;9.486;2022-10-17T01:04:44;8.77;;;8.40;;
18138;SDS011;9195;53.176;9.486;2022-10-17T01:07:12;8.53;;;8.23;;
18138;SDS011;9195;53.176;9.486;2022-10-17T01:09:38;8.00;;;7.70;;
18138;SDS011;9195;53.176;9.486;2022-10-17T01:22:35;8.60;;;8.30;;
18138;SDS011;9195;53.176;9.486;2022-10-17T01:31:16;8.57;;;8.27;;
18138;SDS011;9195;53.176;9.486;2022-10-17T01:39:05;8.60;;;8.30;;
18138;SDS011;9195;53.176;9.486;2022-10-17T01:41:46;8.40;;;8.10;;
18138;SDS011;9195;53.176;9.486;2022-10-17T01:44:19;8.57;;;8.27;;
18138;SDS011;9195;53.176;9.486;2022-10-17T01:46:56;8.60;;;8.30;;
18138;SDS011;9195;53.176;9.486;2022-10-17T01:49:29;8.60;;;8.30;;
18138;SDS011;9195;53.176;9.486;2022-10-17T01:52:05;8.93;;;8.53;;
18138;SDS011;9195;53.176;9.486;2022-10-17T01:54:45;9.13;;;8.73;;
18138;SDS011;9195;53.176;9.486;2022-10-17T01:57:39;8.83;;;8.47;;
18138;SDS011;9195;53.176;9.486;2022-10-17T02:00:07;8.60;;;8.30;;
18138;SDS011;9195;53.176;9.486;2022-10-17T02:02:35;9.00;;;8.60;;
18138;SDS011;9195;53.176;9.486;2022-10-17T02:05:02;9.20;;;8.80;;
18138;SDS011;9195;53.176;9.486;2022-10-17T02:07:28;8.80;;;8.40;;
18138;SDS011;9195;53.176;9.486;2022-10-17T02:09:54;8.93;;;8.53;;
18138;SDS011;9195;53.176;9.486;2022-10-17T02:21:05;8.97;;;8.57;;
18138;SDS011;9195;53.176;9.486;2022-10-17T02:26:45;9.07;;;8.67;;
18138;SDS011;9195;53.176;9.486;2022-10-17T02:31:53;8.50;;;8.20;;
18138;SDS011;9195;53.176;9.486;2022-10-17T02:34:32;8.97;;;8.57;;
18138;SDS011;9195;53.176;9.486;2022-10-17T02:37:15;8.67;;;8.37;;
18138;SDS011;9195;53.176;9.486;2022-10-17T02:39:45;8.63;;;8.33;;
18138;SDS011;9195;53.176;9.486;2022-10-17T02:42:12;9.00;;;8.60;;
18138;SDS011;9195;53.176;9.486;2022-10-17T02:44:39;8.53;;;8.23;;
18138;SDS011;9195;53.176;9.486;2022-10-17T02:47:11;8.30;;;8.00;;
18138;SDS011;9195;53.176;9.486;2022-10-17T02:49:41;8.20;;;7.90;;
18138;SDS011;9195;53.176;9.486;2022-10-17T02:52:21;8.40;;;8.10;;
18138;SDS011;9195;53.176;9.486;2022-10-17T02:55:01;8.10;;;7.80;;
18138;SDS011;9195;53.176;9.486;2022-10-17T02:57:35;8.30;;;8.00;;
18138;SDS011;9195;53.176;9.486;2022-10-17T03:00:07;8.50;;;8.20;;
18138;SDS011;9195;53.176;9.486;2022-10-17T03:02:39;8.23;;;7.93;;
18138;SDS011;9195;53.176;9.486;2022-10-17T03:05:17;7.97;;;7.67;;
18138;SDS011;9195;53.176;9.486;2022-10-17T03:07:45;7.90;;;7.60;;
18138;SDS011;9195;53.176;9.486;2022-10-17T03:10:11;7.73;;;7.43;;
18138;SDS011;9195;53.176;9.486;2022-10-17T03:12:37;8.00;;;7.70;;
18138;SDS011;9195;53.176;9.486;2022-10-17T03:15:02;7.83;;;7.53;;
18138;SDS011;9195;53.176;9.486;2022-10-17T03:17:28;7.80;;;7.50;;
18138;SDS011;9195;53.176;9.486;2022-10-17T03:19:54;8.00;;;7.70;;
18138;SDS011;9195;53.176;9.486;2022-10-17T03:22:20;7.67;;;7.37;;
18138;SDS011;9195;53.176;9.486;2022-10-17T03:24:45;7.90;;;7.60;;
18138;SDS011;9195;53.176;9.486;2022-10-17T03:27:11;8.03;;;7.73;;
18138;SDS011;9195;53.176;9.486;2022-10-17T03:29:36;7.53;;;7.23;;
18138;SDS011;9195;53.176;9.486;2022-10-17T03:32:02;7.50;;;7.20;;
18138;SDS011;9195;53.176;9.486;2022-10-17T03:34:28;7.37;;;7.07;;
18138;SDS011;9195;53.176;9.486;2022-10-17T03:36:53;7.17;;;6.87;;
18138;SDS011;9195;53.176;9.486;2022-10-17T03:39:19;7.17;;;6.87;;
18138;SDS011;9195;53.176;9.486;2022-10-17T03:41:44;7.10;;;6.80;;
18138;SDS011;9195;53.176;9.486;2022-10-17T03:44:10;7.33;;;7.03;;
18138;SDS011;9195;53.176;9.486;2022-10-17T03:46:36;7.47;;;7.17;;
18138;SDS011;9195;53.176;9.486;2022-10-17T03:49:02;7.43;;;7.13;;
18138;SDS011;9195;53.176;9.486;2022-10-17T03:51:27;7.10;;;6.80;;
18138;SDS011;9195;53.176;9.486;2022-10-17T03:53:53;7.47;;;7.17;;
18138;SDS011;9195;53.176;9.486;2022-10-17T03:56:22;7.20;;;6.90;;
18138;SDS011;9195;53.176;9.486;2022-10-17T03:58:48;7.00;;;6.70;;
18138;SDS011;9195;53.176;9.486;2022-10-17T04:01:14;6.87;;;6.57;;
18138;SDS011;9195;53.176;9.486;2022-10-17T04:03:42;6.87;;;6.57;;
18138;SDS011;9195;53.176;9.486;2022-10-17T04:06:10;6.70;;;6.40;;
18138;SDS011;9195;53.176;9.486;2022-10-17T04:08:36;6.77;;;6.47;;
18138;SDS011;9195;53.176;9.486;2022-10-17T04:11:03;7.20;;;6.90;;
18138;SDS011;9195;53.176;9.486;2022-10-17T04:13:31;6.73;;;6.43;;
18138;SDS011;9195;53.176;9.486;2022-10-17T04:16:00;6.50;;;6.30;;
18138;SDS011;9195;53.176;9.486;2022-10-17T04:18:28;6.87;;;6.57;;
18138;SDS011;9195;53.176;9.486;2022-10-17T04:20:54;6.80;;;6.50;;
18138;SDS011;9195;53.176;9.486;2022-10-17T04:23:20;6.50;;;6.30;;
18138;SDS011;9195;53.176;9.486;2022-10-17T04:25:47;6.30;;;6.10;;
18138;SDS011;9195;53.176;9.486;2022-10-17T04:28:13;6.20;;;6.00;;
18138;SDS011;9195;53.176;9.486;2022-10-17T04:30:39;6.10;;;5.90;;
18138;SDS011;9195;53.176;9.486;2022-10-17T04:33:04;6.20;;;6.00;;
18138;SDS011;9195;53.176;9.486;2022-10-17T04:35:30;6.40;;;6.20;;
18138;SDS011;9195;53.176;9.486;2022-10-17T04:37:56;5.70;;;5.50;;
18138;SDS011;9195;53.176;9.486;2022-10-17T04:40:21;5.73;;;5.53;;
18138;SDS011;9195;53.176;9.486;2022-10-17T04:42:47;5.87;;;5.67;;
18138;SDS011;9195;53.176;9.486;2022-10-17T04:45:13;5.73;;;5.53;;
18138;SDS011;9195;53.176;9.486;2022-10-17T04:47:38;5.70;;;5.50;;
18138;SDS011;9195;53.176;9.486;2022-10-17T04:50:04;6.27;;;6.07;;
18138;SDS011;9195;53.176;9.486;2022-10-17T04:52:30;5.80;;;5.60;;
18138;SDS011;9195;53.176;9.486;2022-10-17T04:54:56;5.93;;;5.73;;
18138;SDS011;9195;53.176;9.486;2022-10-17T04:57:22;6.20;;;6.00;;
18138;SDS011;9195;53.176;9.486;2022-10-17T04:59:48;6.20;;;6.00;;
18138;SDS011;9195;53.176;9.486;2022-10-17T05:02:15;6.70;;;6.40;;
18138;SDS011;9195;53.176;9.486;2022-10-17T05:04:40;7.37;;;7.07;;
18138;SDS011;9195;53.176;9.486;2022-10-17T05:07:06;6.80;;;6.50;;
18138;SDS011;9195;53.176;9.486;2022-10-17T05:09:32;6.57;;;6.37;;
18138;SDS011;9195;53.176;9.486;2022-10-17T05:11:57;7.23;;;6.93;;
18138;SDS011;9195;53.176;9.486;2022-10-17T05:14:23;7.60;;;7.30;;
18138;SDS011;9195;53.176;9.486;2022-10-17T05:16:49;7.70;;;7.40;;
18138;SDS011;9195;53.176;9.486;2022-10-17T05:19:14;8.30;;;8.00;;
18138;SDS011;9195;53.176;9.486;2022-10-17T05:21:41;7.93;;;7.63;;
18138;SDS011;9195;53.176;9.486;2022-10-17T05:24:07;7.70;;;7.40;;
18138;SDS011;9195;53.176;9.486;2022-10-17T05:26:34;7.97;;;7.67;;
18138;SDS011;9195;53.176;9.486;2022-10-17T05:29:00;7.73;;;7.43;;
18138;SDS011;9195;53.176;9.486;2022-10-17T05:31:27;7.30;;;7.00;;
18138;SDS011;9195;53.176;9.486;2022-10-17T05:33:53;7.60;;;7.30;;
18138;SDS011;9195;53.176;9.486;2022-10-17T05:36:20;7.40;;;7.10;;
18138;SDS011;9195;53.176;9.486;2022-10-17T05:38:49;7.77;;;7.47;;
18138;SDS011;9195;53.176;9.486;2022-10-17T05:41:16;7.30;;;7.00;;
18138;SDS011;9195;53.176;9.486;2022-10-17T05:43:42;7.00;;;6.70;;
18138;SDS011;9195;53.176;9.486;2022-10-17T05:46:08;6.67;;;6.37;;
18138;SDS011;9195;53.176;9.486;2022-10-17T05:48:34;6.53;;;6.30;;
18138;SDS011;9195;53.176;9.486;2022-10-17T05:51:00;5.93;;;5.73;;
18138;SDS011;9195;53.176;9.486;2022-10-17T05:53:29;6.33;;;6.13;;
18138;SDS011;9195;53.176;9.486;2022-10-17T05:55:59;6.57;;;6.33;;
18138;SDS011;9195;53.176;9.486;2022-10-17T05:58:26;7.33;;;7.03;;
18138;SDS011;9195;53.176;9.486;2022-10-17T06:01:03;7.63;;;7.33;;
18138;SDS011;9195;53.176;9.486;2022-10-17T06:03:30;7.47;;;7.17;;
18138;SDS011;9195;53.176;9.486;2022-10-17T06:06:01;7.80;;;7.50;;
18138;SDS011;9195;53.176;9.486;2022-10-17T06:08:32;7.60;;;7.30;;
18138;SDS011;9195;53.176;9.486;2022-10-17T06:10:58;6.27;;;6.07;;
18138;SDS011;9195;53.176;9.486;2022-10-17T06:13:24;4.93;;;4.73;;
18138;SDS011;9195;53.176;9.486;2022-10-17T06:15:49;5.77;;;5.57;;
18138;SDS011;9195;53.176;9.486;2022-10-17T06:18:15;6.47;;;6.27;;
18138;SDS011;9195;53.176;9.486;2022-10-17T06:20:40;6.70;;;6.40;;
18138;SDS011;9195;53.176;9.486;2022-10-17T06:23:06;6.70;;;6.40;;
18138;SDS011;9195;53.176;9.486;2022-10-17T06:25:32;6.87;;;6.57;;
18138;SDS011;9195;53.176;9.486;2022-10-17T06:27:58;7.00;;;6.70;;
18138;SDS011;9195;53.176;9.486;2022-10-17T06:30:23;6.87;;;6.57;;
18138;SDS011;9195;53.176;9.486;2022-10-17T06:32:50;7.03;;;6.73;;
18138;SDS011;9195;53.176;9.486;2022-10-17T06:35:17;7.27;;;6.97;;
18138;SDS011;9195;53.176;9.486;2022-10-17T06:37:43;7.30;;;7.00;;
18138;SDS011;9195;53.176;9.486;2022-10-17T06:40:09;7.30;;;7.00;;
18138;SDS011;9195;53.176;9.486;2022-10-17T06:42:36;7.77;;;7.47;;
18138;SDS011;9195;53.176;9.486;2022-10-17T06:45:06;5.40;;;5.20;;
18138;SDS011;9195;53.176;9.486;2022-10-17T06:47:32;7.57;;;7.27;;
18138;SDS011;9195;53.176;9.486;2022-10-17T06:49:58;5.73;;;5.53;;
18138;SDS011;9195;53.176;9.486;2022-10-17T06:52:24;6.90;;;6.60;;
18138;SDS011;9195;53.176;9.486;2022-10-17T06:54:49;5.93;;;5.73;;
18138;SDS011;9195;53.176;9.486;2022-10-17T06:57:18;7.33;;;7.03;;
18138;SDS011;9195;53.176;9.486;2022-10-17T06:59:43;6.80;;;6.50;;
18138;SDS011;9195;53.176;9.486;2022-10-17T07:02:09;7.13;;;6.83;;
18138;SDS011;9195;53.176;9.486;2022-10-17T07:04:35;6.10;;;5.90;;
18138;SDS011;9195;53.176;9.486;2022-10-17T07:07:01;5.90;;;5.70;;
18138;SDS011;9195;53.176;9.486;2022-10-17T07:09:27;7.27;;;6.97;;
18138;SDS011;9195;53.176;9.486;2022-10-17T07:11:53;5.83;;;5.63;;
18138;SDS011;9195;53.176;9.486;2022-10-17T07:14:19;5.50;;;5.30;;
18138;SDS011;9195;53.176;9.486;2022-10-17T07:16:45;5.70;;;5.50;;
18138;SDS011;9195;53.176;9.486;2022-10-17T07:19:10;5.73;;;5.53;;
18138;SDS011;9195;53.176;9.486;2022-10-17T07:21:36;5.93;;;5.73;;
18138;SDS011;9195;53.176;9.486;2022-10-17T07:24:02;5.90;;;5.70;;
18138;SDS011;9195;53.176;9.486;2022-10-17T07:26:28;6.00;;;5.80;;
18138;SDS011;9195;53.176;9.486;2022-10-17T07:28:53;6.27;;;6.07;;
18138;SDS011;9195;53.176;9.486;2022-10-17T07:31:20;6.70;;;6.40;;
18138;SDS011;9195;53.176;9.486;2022-10-17T07:33:46;6.40;;;6.20;;
18138;SDS011;9195;53.176;9.486;2022-10-17T07:36:13;6.87;;;6.57;;
18138;SDS011;9195;53.176;9.486;2022-10-17T07:38:39;6.20;;;6.00;;
18138;SDS011;9195;53.176;9.486;2022-10-17T07:41:06;6.10;;;5.90;;
18138;SDS011;9195;53.176;9.486;2022-10-17T07:43:33;6.83;;;6.53;;
18138;SDS011;9195;53.176;9.486;2022-10-17T07:46:01;7.60;;;7.30;;
18138;SDS011;9195;53.176;9.486;2022-10-17T07:48:28;7.27;;;6.97;;
18138;SDS011;9195;53.176;9.486;2022-10-17T07:50:54;8.30;;;8.00;;
18138;SDS011;9195;53.176;9.486;2022-10-17T07:53:20;7.27;;;6.97;;
18138;SDS011;9195;53.176;9.486;2022-10-17T07:55:45;7.63;;;7.33;;
18138;SDS011;9195;53.176;9.486;2022-10-17T07:58:12;7.53;;;7.23;;
18138;SDS011;9195;53.176;9.486;2022-10-17T08:00:38;7.37;;;7.07;;
18138;SDS011;9195;53.176;9.486;2022-10-17T08:03:04;7.73;;;7.43;;
18138;SDS011;9195;53.176;9.486;2022-10-17T08:05:30;7.87;;;7.57;;
18138;SDS011;9195;53.176;9.486;2022-10-17T08:07:57;7.90;;;7.60;;
18138;SDS011;9195;53.176;9.486;2022-10-17T08:10:22;7.77;;;7.47;;
18138;SDS011;9195;53.176;9.486;2022-10-17T08:12:53;8.37;;;8.07;;
18138;SDS011;9195;53.176;9.486;2022-10-17T08:15:20;8.57;;;8.27;;
18138;SDS011;9195;53.176;9.486;2022-10-17T08:17:46;10.50;;;10.10;;
18138;SDS011;9195;53.176;9.486;2022-10-17T08:20:12;10.60;;;10.20;;
18138;SDS011;9195;53.176;9.486;2022-10-17T08:22:37;8.90;;;8.50;;
18138;SDS011;9195;53.176;9.486;2022-10-17T08:25:03;10.03;;;9.63;;
18138;SDS011;9195;53.176;9.486;2022-10-17T08:27:31;9.77;;;9.37;;
18138;SDS011;9195;53.176;9.486;2022-10-17T08:29:57;9.90;;;9.50;;
18138;SDS011;9195;53.176;9.486;2022-10-17T08:32:24;10.17;;;9.77;;
18138;SDS011;9195;53.176;9.486;2022-10-17T08:34:52;9.67;;;9.27;;
18138;SDS011;9195;53.176;9.486;2022-10-17T08:37:18;10.20;;;9.80;;
18138;SDS011;9195;53.176;9.486;2022-10-17T08:39:43;9.87;;;9.47;;
18138;SDS011;9195;53.176;9.486;2022-10-17T08:45:05;9.80;;;9.40;;
18138;SDS011;9195;53.176;9.486;2022-10-17T08:47:37;10.47;;;10.07;;
18138;SDS011;9195;53.176;9.486;2022-10-17T08:50:08;10.20;;;9.80;;
18138;SDS011;9195;53.176;9.486;2022-10-17T08:52:45;11.30;;;10.80;;
18138;SDS011;9195;53.176;9.486;2022-10-17T08:55:27;11.33;;;10.83;;
18138;SDS011;9195;53.176;9.486;2022-10-17T08:57:57;12.00;;;11.50;;
18138;SDS011;9195;53.176;9.486;2022-10-17T09:00:23;11.73;;;11.23;;
18138;SDS011;9195;53.176;9.486;2022-10-17T09:03:01;11.67;;;11.17;;
18138;SDS011;9195;53.176;9.486;2022-10-17T09:08:26;12.10;;;11.60;;
18138;SDS011;9195;53.176;9.486;2022-10-17T09:19:06;12.73;;;12.23;;
18138;SDS011;9195;53.176;9.486;2022-10-17T09:22:19;12.70;;;12.20;;
18138;SDS011;9195;53.176;9.486;2022-10-17T09:24:53;12.83;;;12.30;;
18138;SDS011;9195;53.176;9.486;2022-10-17T09:27:29;12.97;;;12.37;;
18138;SDS011;9195;53.176;9.486;2022-10-17T09:32:55;13.50;;;12.90;;
18138;SDS011;9195;53.176;9.486;2022-10-17T09:35:21;13.00;;;12.40;;
18138;SDS011;9195;53.176;9.486;2022-10-17T09:37:48;13.60;;;13.00;;
18138;SDS011;9195;53.176;9.486;2022-10-17T09:40:25;13.95;;;13.35;;
18138;SDS011;9195;53.176;9.486;2022-10-17T09:42:55;13.38;;;12.77;;
18138;SDS011;9195;53.176;9.486;2022-10-17T09:45:22;13.95;;;13.35;;
18138;SDS011;9195;53.176;9.486;2022-10-17T09:47:58;14.38;;;13.77;;
18138;SDS011;9195;53.176;9.486;2022-10-17T09:50:35;14.00;;;13.40;;
18138;SDS011;9195;53.176;9.486;2022-10-17T09:56:14;14.05;;;13.45;;
18138;SDS011;9195;53.176;9.486;2022-10-17T10:01:18;13.40;;;12.80;;
18138;SDS011;9195;53.176;9.486;2022-10-17T10:03:46;13.60;;;13.00;;
18138;SDS011;9195;53.176;9.486;2022-10-17T10:06:14;13.70;;;13.10;;
18138;SDS011;9195;53.176;9.486;2022-10-17T10:08:51;14.88;;;14.18;;
18138;SDS011;9195;53.176;9.486;2022-10-17T10:11:21;13.57;;;12.98;;
18138;SDS011;9195;53.176;9.486;2022-10-17T10:13:49;13.75;;;13.15;;
18138;SDS011;9195;53.176;9.486;2022-10-17T10:18:46;13.23;;;12.63;;
18138;SDS011;9195;53.176;9.486;2022-10-17T10:21:14;13.45;;;12.85;;
18138;SDS011;9195;53.176;9.486;2022-10-17T10:26:39;13.50;;;12.90;;
18138;SDS011;9195;53.176;9.486;2022-10-17T10:29:25;13.15;;;12.55;;
18138;SDS011;9195;53.176;9.486;2022-10-17T10:31:55;13.10;;;12.50;;
18138;SDS011;9195;53.176;9.486;2022-10-17T10:34:30;13.10;;;12.50;;
18138;SDS011;9195;53.176;9.486;2022-10-17T10:39:32;13.60;;;13.00;;
18138;SDS011;9195;53.176;9.486;2022-10-17T10:42:07;14.20;;;13.60;;
18138;SDS011;9195;53.176;9.486;2022-10-17T10:44:42;13.68;;;13.07;;
18138;SDS011;9195;53.176;9.486;2022-10-17T10:47:14;13.90;;;13.30;;
18138;SDS011;9195;53.176;9.486;2022-10-17T10:49:43;13.77;;;13.17;;
18138;SDS011;9195;53.176;9.486;2022-10-17T10:52:26;13.80;;;13.20;;
18138;SDS011;9195;53.176;9.486;2022-10-17T10:55:08;13.97;;;13.37;;
18138;SDS011;9195;53.176;9.486;2022-10-17T10:57:51;13.33;;;12.73;;
18138;SDS011;9195;53.176;9.486;2022-10-17T11:00:22;13.73;;;13.13;;
18138;SDS011;9195;53.176;9.486;2022-10-17T11:08:18;13.50;;;12.90;;
18138;SDS011;9195;53.176;9.486;2022-10-17T11:13:36;13.03;;;12.43;;
18138;SDS011;9195;53.176;9.486;2022-10-17T11:19:13;13.37;;;12.77;;
18138;SDS011;9195;53.176;9.486;2022-10-17T11:22:08;13.27;;;12.67;;
18138;SDS011;9195;53.176;9.486;2022-10-17T11:24:49;13.07;;;12.47;;
18138;SDS011;9195;53.176;9.486;2022-10-17T11:27:21;13.40;;;12.80;;
18138;SDS011;9195;53.176;9.486;2022-10-17T11:29:48;13.50;;;12.90;;
18138;SDS011;9195;53.176;9.486;2022-10-17T11:32:16;13.00;;;12.40;;
18138;SDS011;9195;53.176;9.486;2022-10-17T11:34:50;12.97;;;12.40;;
18138;SDS011;9195;53.176;9.486;2022-10-17T11:37:26;12.77;;;12.27;;
18138;SDS011;9195;53.176;9.486;2022-10-17T11:42:37;12.57;;;12.07;;
18138;SDS011;9195;53.176;9.486;2022-10-17T11:45:10;12.63;;;12.13;;
18138;SDS011;9195;53.176;9.486;2022-10-17T11:47:52;13.10;;;12.50;;
18138;SDS011;9195;53.176;9.486;2022-10-17T11:50:26;12.40;;;11.90;;
18138;SDS011;9195;53.176;9.486;2022-10-17T11:52:58;12.30;;;11.80;;
18138;SDS011;9195;53.176;9.486;2022-10-17T11:55:32;12.30;;;11.80;;
18138;SDS011;9195;53.176;9.486;2022-10-17T12:00:49;12.47;;;11.97;;
18138;SDS011;9195;53.176;9.486;2022-10-17T12:14:02;12.40;;;11.90;;
18138;SDS011;9195;53.176;9.486;2022-10-17T12:21:26;12.43;;;11.93;;
18138;SDS011;9195;53.176;9.486;2022-10-17T12:23:53;12.27;;;11.77;;
18138;SDS011;9195;53.176;9.486;2022-10-17T12:26:26;11.90;;;11.40;;
18138;SDS011;9195;53.176;9.486;2022-10-17T12:28:53;12.00;;;11.50;;
18138;SDS011;9195;53.176;9.486;2022-10-17T12:49:20;11.80;;;11.30;;
18138;SDS011;9195;53.176;9.486;2022-10-17T12:54:47;9.30;;;8.90;;
18138;SDS011;9195;53.176;9.486;2022-10-17T13:03:02;6.80;;;6.50;;
18138;SDS011;9195;53.176;9.486;2022-10-17T13:05:41;5.83;;;5.63;;
18138;SDS011;9195;53.176;9.486;2022-10-17T13:08:14;5.10;;;4.90;;
18138;SDS011;9195;53.176;9.486;2022-10-17T13:10:46;3.80;;;3.70;;
18138;SDS011;9195;53.176;9.486;2022-10-17T13:15:48;3.00;;;2.90;;
18138;SDS011;9195;53.176;9.486;2022-10-17T13:18:22;3.00;;;2.90;;
18138;SDS011;9195;53.176;9.486;2022-10-17T13:23:50;4.07;;;3.97;;
18138;SDS011;9195;53.176;9.486;2022-10-17T13:26:24;4.23;;;4.10;;
18138;SDS011;9195;53.176;9.486;2022-10-17T13:31:36;4.20;;;4.10;;
18138;SDS011;9195;53.176;9.486;2022-10-17T13:34:05;3.80;;;3.70;;
18138;SDS011;9195;53.176;9.486;2022-10-17T13:36:42;4.80;;;4.60;;
18138;SDS011;9195;53.176;9.486;2022-10-17T13:39:12;4.80;;;4.60;;
18138;SDS011;9195;53.176;9.486;2022-10-17T13:41:41;4.80;;;4.60;;
18138;SDS011;9195;53.176;9.486;2022-10-17T13:44:14;2.90;;;2.80;;
18138;SDS011;9195;53.176;9.486;2022-10-17T13:46:43;3.20;;;3.10;;
18138;SDS011;9195;53.176;9.486;2022-10-17T13:49:10;3.40;;;3.30;;
18138;SDS011;9195;53.176;9.486;2022-10-17T13:51:43;3.17;;;3.07;;
18138;SDS011;9195;53.176;9.486;2022-10-17T13:56:56;2.90;;;2.80;;
18138;SDS011;9195;53.176;9.486;2022-10-17T13:59:24;3.20;;;3.10;;
18138;SDS011;9195;53.176;9.486;2022-10-17T14:02:05;2.80;;;2.70;;
18138;SDS011;9195;53.176;9.486;2022-10-17T14:04:37;3.10;;;3.00;;
18138;SDS011;9195;53.176;9.486;2022-10-17T14:07:03;2.73;;;2.63;;
18138;SDS011;9195;53.176;9.486;2022-10-17T14:09:31;2.90;;;2.80;;
18138;SDS011;9195;53.176;9.486;2022-10-17T14:12:03;2.97;;;2.87;;
18138;SDS011;9195;53.176;9.486;2022-10-17T14:14:36;2.80;;;2.70;;
18138;SDS011;9195;53.176;9.486;2022-10-17T14:17:12;2.93;;;2.83;;
18138;SDS011;9195;53.176;9.486;2022-10-17T14:19:39;3.00;;;2.90;;
18138;SDS011;9195;53.176;9.486;2022-10-17T14:22:15;2.30;;;2.20;;
18138;SDS011;9195;53.176;9.486;2022-10-17T14:24:48;2.03;;;1.93;;
18138;SDS011;9195;53.176;9.486;2022-10-17T14:30:30;2.50;;;2.40;;
18138;SDS011;9195;53.176;9.486;2022-10-17T14:32:59;2.40;;;2.30;;
18138;SDS011;9195;53.176;9.486;2022-10-17T14:35:27;2.80;;;2.70;;
18138;SDS011;9195;53.176;9.486;2022-10-17T14:37:58;2.83;;;2.73;;
18138;SDS011;9195;53.176;9.486;2022-10-17T14:40:26;3.17;;;3.07;;
18138;SDS011;9195;53.176;9.486;2022-10-17T14:42:53;2.83;;;2.73;;
18138;SDS011;9195;53.176;9.486;2022-10-17T14:45:25;2.57;;;2.47;;
18138;SDS011;9195;53.176;9.486;2022-10-17T14:47:56;2.50;;;2.40;;
18138;SDS011;9195;53.176;9.486;2022-10-17T14:50:28;2.40;;;2.30;;
18138;SDS011;9195;53.176;9.486;2022-10-17T14:55:29;2.20;;;2.10;;
18138;SDS011;9195;53.176;9.486;2022-10-17T14:57:56;2.20;;;2.10;;
18138;SDS011;9195;53.176;9.486;2022-10-17T15:00:22;2.30;;;2.20;;
18138;SDS011;9195;53.176;9.486;2022-10-17T15:02:49;2.20;;;2.10;;
18138;SDS011;9195;53.176;9.486;2022-10-17T15:05:16;1.77;;;1.77;;
18138;SDS011;9195;53.176;9.486;2022-10-17T15:07:43;1.80;;;1.80;;
18138;SDS011;9195;53.176;9.486;2022-10-17T15:10:30;2.20;;;2.10;;
18138;SDS011;9195;53.176;9.486;2022-10-17T15:12:57;3.00;;;2.90;;
18138;SDS011;9195;53.176;9.486;2022-10-17T15:15:25;2.83;;;2.73;;
18138;SDS011;9195;53.176;9.486;2022-10-17T15:17:54;3.00;;;2.90;;
18138;SDS011;9195;53.176;9.486;2022-10-17T15:20:20;3.03;;;2.93;;
18138;SDS011;9195;53.176;9.486;2022-10-17T15:22:50;3.20;;;3.10;;
18138;SDS011;9195;53.176;9.486;2022-10-17T15:25:18;2.97;;;2.87;;
18138;SDS011;9195;53.176;9.486;2022-10-17T15:27:44;3.20;;;3.10;;
18138;SDS011;9195;53.176;9.486;2022-10-17T15:30:20;3.00;;;2.90;;
18138;SDS011;9195;53.176;9.486;2022-10-17T15:32:52;2.73;;;2.63;;
18138;SDS011;9195;53.176;9.486;2022-10-17T15:35:18;2.90;;;2.80;;
18138;SDS011;9195;53.176;9.486;2022-10-17T15:37:45;2.70;;;2.60;;
18138;SDS011;9195;53.176;9.486;2022-10-17T15:40:15;3.00;;;2.90;;
18138;SDS011;9195;53.176;9.486;2022-10-17T15:42:42;2.90;;;2.80;;
18138;SDS011;9195;53.176;9.486;2022-10-17T15:45:10;2.70;;;2.60;;
18138;SDS011;9195;53.176;9.486;2022-10-17T15:47:39;2.77;;;2.67;;
18138;SDS011;9195;53.176;9.486;2022-10-17T15:50:06;2.70;;;2.60;;
18138;SDS011;9195;53.176;9.486;2022-10-17T15:52:34;2.90;;;2.80;;
18138;SDS011;9195;53.176;9.486;2022-10-17T15:55:00;2.60;;;2.50;;
18138;SDS011;9195;53.176;9.486;2022-10-17T15:57:27;2.60;;;2.50;;
18138;SDS011;9195;53.176;9.486;2022-10-17T15:59:56;2.30;;;2.20;;
18138;SDS011;9195;53.176;9.486;2022-10-17T16:02:23;2.60;;;2.50;;
18138;SDS011;9195;53.176;9.486;2022-10-17T16:04:49;2.10;;;2.00;;
18138;SDS011;9195;53.176;9.486;2022-10-17T16:07:16;2.10;;;2.00;;
18138;SDS011;9195;53.176;9.486;2022-10-17T16:09:43;2.30;;;2.20;;
18138;SDS011;9195;53.176;9.486;2022-10-17T16:12:14;2.20;;;2.10;;
18138;SDS011;9195;53.176;9.486;2022-10-17T16:14:52;2.20;;;2.10;;
18138;SDS011;9195;53.176;9.486;2022-10-17T16:17:17;2.10;;;2.00;;
18138;SDS011;9195;53.176;9.486;2022-10-17T16:19:43;2.00;;;1.90;;
18138;SDS011;9195;53.176;9.486;2022-10-17T16:22:30;1.80;;;1.80;;
18138;SDS011;9195;53.176;9.486;2022-10-17T16:24:56;1.40;;;1.40;;
18138;SDS011;9195;53.176;9.486;2022-10-17T16:27:31;1.50;;;1.50;;
18138;SDS011;9195;53.176;9.486;2022-10-17T16:29:56;1.70;;;1.70;;
18138;SDS011;9195;53.176;9.486;2022-10-17T16:32:22;1.60;;;1.60;;
18138;SDS011;9195;53.176;9.486;2022-10-17T16:34:48;1.83;;;1.83;;
18138;SDS011;9195;53.176;9.486;2022-10-17T16:37:13;1.77;;;1.77;;
18138;SDS011;9195;53.176;9.486;2022-10-17T16:39:39;1.80;;;1.80;;
18138;SDS011;9195;53.176;9.486;2022-10-17T16:42:05;1.83;;;1.80;;
18138;SDS011;9195;53.176;9.486;2022-10-17T16:44:30;1.80;;;1.80;;
18138;SDS011;9195;53.176;9.486;2022-10-17T16:46:56;2.10;;;2.00;;
18138;SDS011;9195;53.176;9.486;2022-10-17T16:49:22;1.80;;;1.80;;
18138;SDS011;9195;53.176;9.486;2022-10-17T16:51:47;1.80;;;1.80;;
18138;SDS011;9195;53.176;9.486;2022-10-17T16:54:13;2.00;;;1.90;;
18138;SDS011;9195;53.176;9.486;2022-10-17T16:56:38;1.77;;;1.77;;
18138;SDS011;9195;53.176;9.486;2022-10-17T16:59:06;2.00;;;1.90;;
18138;SDS011;9195;53.176;9.486;2022-10-17T17:01:33;1.90;;;1.90;;
18138;SDS011;9195;53.176;9.486;2022-10-17T17:03:59;1.67;;;1.67;;
18138;SDS011;9195;53.176;9.486;2022-10-17T17:06:26;2.10;;;2.00;;
18138;SDS011;9195;53.176;9.486;2022-10-17T17:08:53;1.50;;;1.50;;
18138;SDS011;9195;53.176;9.486;2022-10-17T17:11:20;1.50;;;1.50;;
18138;SDS011;9195;53.176;9.486;2022-10-17T17:13:47;1.13;;;1.13;;
18138;SDS011;9195;53.176;9.486;2022-10-17T17:16:14;1.00;;;1.00;;
18138;SDS011;9195;53.176;9.486;2022-10-17T17:18:42;0.90;;;0.90;;
18138;SDS011;9195;53.176;9.486;2022-10-17T17:21:10;0.70;;;0.70;;
18138;SDS011;9195;53.176;9.486;2022-10-17T17:23:37;0.67;;;0.67;;
18138;SDS011;9195;53.176;9.486;2022-10-17T17:26:05;0.77;;;0.77;;
18138;SDS011;9195;53.176;9.486;2022-10-17T17:28:42;0.90;;;0.90;;
18138;SDS011;9195;53.176;9.486;2022-10-17T17:31:13;0.67;;;0.67;;